Latest Weather Observations for Kowen Forest

IDN60801

Issued at 6:42 am EST Tuesday 21 May 2019 (issued every 10 minutes, with the page automatically refreshed every 10 minutes)

About weather observations | Map of weather stations | Latest weather observations for NSW | Other Formats
Station Details ID: 250071 Name: PORTABLE RFSACT03 Lat: -35.31 Lon: 149.32 Height: 720.0 m
Data from the previous 72 hours. | See also: Recent months for locations in New South Wales
Date/Time
EST
Temp
°C
App
Temp
°C
Dew
Point
°C
Rel
Hum
%
Delta-T
°C
Wind Press
QNH
hPa
Press
MSL
hPa
Rain since
9am
mm
Dir  Spd
km/h
Gust
km/h
Spd
kts
Gust
kts
21/06:20am 11.2 8.6 7.6 78 1.8 NW 11 15 6 8 - - 0.0
21/06:10am 11.0 8.7 7.5 79 1.8 NW 9 13 5 7 - - 0.0
21/06:00am 11.4 8.7 7.4 76 2.0 NNW 11 11 6 6 - - 0.0
21/05:50am 11.1 9.4 7.4 78 1.9 NNW 6 11 3 6 - - 0.0
21/05:40am 11.5 9.1 7.0 74 2.2 SW 9 15 5 8 - - 0.0
21/05:30am 12.3 9.2 7.3 71 2.5 WNW 13 17 7 9 - - 0.0
21/05:20am 12.3 8.0 6.8 69 2.7 NW 19 22 10 12 - - 0.0
21/05:10am 12.3 7.9 6.5 67 2.9 NW 19 20 10 11 - - 0.0
21/05:00am 12.0 8.3 6.3 68 2.8 NW 15 20 8 11 - - 0.0
21/04:50am 11.4 8.1 6.2 70 2.5 WNW 13 13 7 7 - - 0.0
21/04:40am 11.3 8.0 6.4 72 2.4 NW 13 17 7 9 - - 0.0
21/04:30am 11.4 7.3 6.3 71 2.5 NW 17 20 9 11 - - 0.0
21/04:20am 11.2 7.1 6.1 71 2.5 NW 17 19 9 10 - - 0.0
21/04:10am 10.7 6.5 5.8 72 2.4 NW 17 20 9 11 - - 0.0
21/04:00am 10.4 7.0 5.8 73 2.2 NW 13 13 7 7 - - 0.0
21/03:50am 10.3 7.2 5.7 73 2.2 NW 11 15 6 8 - - 0.0
21/03:40am 10.0 6.9 5.7 74 2.1 NNW 11 11 6 6 - - 0.0
21/03:30am 9.2 6.0 4.9 74 2.0 N 11 13 6 7 - - 0.0
21/03:20am 7.4 5.1 5.0 85 1.1 NNE 6 7 3 4 - - 0.0
21/03:10am 7.0 5.2 5.5 90 0.7 NW 4 7 2 4 - - 0.0
21/03:00am 6.9 4.1 5.3 89 0.7 NNW 9 9 5 5 - - 0.0
21/02:50am 6.8 4.0 5.1 89 0.8 NNW 9 11 5 6 - - 0.0
21/02:40am 6.5 4.1 5.1 91 0.6 NNW 7 7 4 4 - - 0.0
21/02:30am 6.1 4.3 5.3 95 0.4 NNE 4 7 2 4 - - 0.0
21/02:20am 6.1 4.2 5.0 93 0.5 NE 4 6 2 3 - - 0.0
21/02:10am 6.2 4.4 5.6 96 0.3 NNE 4 6 2 3 - - 0.0
21/02:00am 6.2 4.4 5.2 93 0.5 WNW 4 4 2 2 - - 0.0
21/01:50am 7.0 4.8 5.4 89 0.7 SW 6 7 3 4 - - 0.0
21/01:40am 8.7 7.0 6.0 83 1.3 NE 4 6 2 3 - - 0.0
21/01:30am 8.5 6.7 5.6 82 1.4 NE 4 6 2 3 - - 0.0
21/01:20am 7.5 5.4 5.8 89 0.8 NE 6 6 3 3 - - 0.0
21/01:10am 7.4 6.2 6.4 93 0.5 NE 2 4 1 2 - - 0.0
21/01:00am 7.6 6.0 6.3 91 0.6 NNE 4 4 2 2 - - 0.0
21/12:50am 7.2 5.5 5.9 91 0.6 NE 4 6 2 3 - - 0.0
21/12:40am 6.4 4.3 5.6 95 0.4 NNW 6 7 3 4 - - 0.0
21/12:30am 6.2 4.4 5.3 94 0.4 NNW 4 6 2 3 - - 0.0
21/12:20am 6.6 5.2 5.3 91 0.6 W 2 4 1 2 - - 0.0
21/12:10am 6.7 5.3 5.6 93 0.5 WNW 2 4 1 2 - - 0.0
21/12:00am 7.0 5.3 5.8 92 0.6 W 4 6 2 3 - - 0.0
 
Date/Time
EST
Temp
°C
App
Temp
°C
Dew
Point
°C
Rel
Hum
%
Delta-T
°C
Wind Press
QNH
hPa
Press
MSL
hPa
Rain since
9am
mm
Dir  Spd
km/h
Gust
km/h
Spd
kts
Gust
kts
20/11:50pm 9.0 7.5 6.6 85 1.2 SW 4 4 2 2 - - 0.0
20/11:40pm 10.5 8.9 6.3 75 2.0 N 4 6 2 3 - - 0.0
20/11:30pm 10.5 8.8 5.7 72 2.3 NNE 4 7 2 4 - - 0.0
20/11:20pm 10.5 8.9 6.5 76 2.0 NNW 4 6 2 3 - - 0.0
20/11:10pm 11.9 9.3 6.2 68 2.8 WNW 9 11 5 6 - - 0.0
20/11:00pm 11.3 8.2 5.6 68 2.7 WNW 11 13 6 7 - - 0.0
20/10:50pm 7.3 4.8 6.7 96 0.3 NW 9 13 5 7 - - 0.0
20/10:40pm 6.2 4.5 6.0 99 0.1 WNW 4 6 2 3 - - 0.0
20/10:30pm 5.9 4.5 5.5 97 0.2 WSW 2 4 1 2 - - 0.0
20/10:20pm 5.8 4.4 5.5 98 0.1 ENE 2 4 1 2 - - 0.0
20/10:10pm 5.5 3.6 5.0 97 0.2 NE 4 4 2 2 - - 0.0
20/10:00pm 6.8 4.9 6.5 98 0.1 ENE 6 7 3 4 - - 0.0
20/09:50pm 7.1 5.2 6.8 98 0.1 NE 6 7 3 4 - - 0.0
20/09:40pm 6.3 4.6 5.9 97 0.2 NE 4 6 2 3 - - 0.0
20/09:30pm 6.4 5.1 6.1 98 0.1 NW 2 2 1 1 - - 0.0
20/09:20pm 6.3 5.0 5.9 97 0.2 W 2 4 1 2 - - 0.0
20/09:10pm 6.4 4.7 5.8 96 0.3 SSW 4 4 2 2 - - 0.0
20/09:00pm 7.0 5.4 6.4 96 0.3 ENE 4 6 2 3 - - 0.0
20/08:50pm 7.1 5.2 6.5 96 0.3 NE 6 6 3 3 - - 0.0
20/08:40pm 7.5 5.6 6.9 96 0.3 NE 6 6 3 3 - - 0.0
20/08:30pm 7.3 5.4 6.5 95 0.4 NE 6 6 3 3 - - 0.0
20/08:20pm 7.7 5.7 7.3 97 0.2 NE 7 7 4 4 - - 0.0
20/08:10pm 7.2 5.7 6.7 97 0.2 NNE 4 6 2 3 - - 0.0
20/08:00pm 7.3 6.1 6.6 95 0.3 WNW 2 4 1 2 - - 0.0
20/07:50pm 7.8 6.4 7.2 96 0.3 SE 4 6 2 3 - - 0.0
20/07:40pm 7.9 6.0 6.6 91 0.6 NE 6 6 3 3 - - 0.0
20/07:30pm 8.8 7.1 7.4 91 0.7 NE 6 6 3 3 - - 0.0
20/07:20pm 9.4 8.0 7.4 87 1.0 NE 4 6 2 3 - - 0.0
20/07:10pm 9.8 8.1 7.6 86 1.1 NE 6 6 3 3 - - 0.0
20/07:00pm 9.9 8.3 7.8 87 1.1 NE 6 7 3 4 - - 0.0
20/06:50pm 9.9 8.1 8.0 88 1.0 NE 7 9 4 5 - - 0.0
20/06:40pm 10.3 8.5 7.9 85 1.2 NE 7 9 4 5 - - 0.0
20/06:30pm 10.7 9.0 8.2 84 1.3 NE 7 7 4 4 - - 0.0
20/06:20pm 11.4 9.9 8.3 81 1.6 NE 6 6 3 3 - - 0.0
20/06:10pm 12.0 10.8 8.2 77 1.9 NE 4 6 2 3 - - 0.0
20/06:00pm 12.0 10.9 8.3 78 1.9 NE 4 4 2 2 - - 0.0
20/05:50pm 12.3 11.2 8.3 76 2.1 N 4 6 2 3 - - 0.0
20/05:40pm 13.1 11.6 8.6 74 2.3 NNW 6 7 3 4 - - 0.0
20/05:30pm 14.2 12.2 8.6 69 2.9 NW 9 11 5 6 - - 0.0
20/05:20pm 14.9 12.5 8.7 66 3.3 NW 11 13 6 7 - - 0.0
20/05:10pm 15.4 13.0 8.6 64 3.6 NW 11 13 6 7 - - 0.0
20/05:00pm 15.9 13.1 8.6 62 3.9 WNW 13 19 7 10 - - 0.0
20/04:50pm 16.3 12.8 8.6 60 4.1 NW 17 22 9 12 - - 0.0
20/04:40pm 16.6 13.7 8.3 58 4.4 WNW 13 17 7 9 - - 0.0
20/04:30pm 16.5 12.9 8.3 58 4.3 NW 17 19 9 10 - - 0.0
20/04:20pm 16.5 13.2 8.2 58 4.4 WNW 15 19 8 10 - - 0.0
20/04:10pm 16.2 12.2 8.1 58 4.3 WNW 19 22 10 12 - - 0.0
20/04:00pm 16.6 12.6 8.1 57 4.5 WNW 19 22 10 12 - - 0.0
20/03:50pm 16.7 12.4 7.8 55 4.7 WNW 20 26 11 14 - - 0.0
20/03:40pm 17.0 12.3 7.6 54 4.9 WNW 22 28 12 15 - - 0.0
20/03:30pm 17.3 13.0 7.8 53 5.0 WNW 20 28 11 15 - - 0.0
20/03:20pm 17.5 13.4 7.9 53 5.1 NW 19 24 10 13 - - 0.0
20/03:10pm 17.6 13.5 8.0 53 5.1 NW 19 20 10 11 - - 0.0
20/03:00pm 17.5 12.8 7.8 53 5.1 NW 22 28 12 15 - - 0.0
20/02:50pm 17.8 13.7 7.9 52 5.2 NW 19 24 10 13 - - 0.0
20/02:40pm 17.7 13.6 8.0 53 5.1 WNW 19 22 10 12 - - 0.0
20/02:30pm 17.8 13.7 7.7 51 5.3 WNW 19 26 10 14 - - 0.0
20/02:20pm 17.5 12.4 7.6 52 5.2 WNW 24 28 13 15 - - 0.0
20/02:10pm 17.7 13.4 7.8 52 5.2 WNW 20 26 11 14 - - 0.0
20/02:00pm 17.5 13.2 7.9 53 5.1 WNW 20 24 11 13 - - 0.0
20/01:50pm 17.4 13.0 7.3 51 5.3 WNW 20 26 11 14 - - 0.0
20/01:40pm 17.1 12.0 7.5 53 5.0 WNW 24 30 13 16 - - 0.0
20/01:30pm 17.4 12.5 7.1 50 5.3 WNW 22 28 12 15 - - 0.0
20/01:20pm 17.5 13.2 7.1 50 5.4 WNW 19 24 10 13 - - 0.0
20/01:10pm 16.9 12.5 7.4 53 4.9 W 20 24 11 13 - - 0.0
20/01:00pm 16.7 12.3 7.5 54 4.8 W 20 26 11 14 - - 0.0
20/12:50pm 16.4 13.1 8.1 58 4.4 WNW 15 20 8 11 - - 0.0
20/12:40pm 16.0 11.7 7.7 58 4.3 WNW 20 24 11 13 - - 0.0
20/12:30pm 16.2 11.0 7.2 55 4.6 WNW 24 28 13 15 - - 0.0
20/12:20pm 16.5 11.5 7.9 57 4.5 WNW 24 26 13 14 - - 0.0
20/12:10pm 16.2 11.8 7.5 56 4.5 WNW 20 26 11 14 - - 0.0
20/12:00pm 15.7 12.0 8.1 60 4.0 W 17 20 9 11 - - 0.0
20/11:50am 15.5 11.9 8.2 62 3.8 WNW 17 22 9 12 - - 0.0
20/11:40am 15.6 12.3 7.9 60 4.0 WNW 15 17 8 9 - - 0.0
20/11:30am 15.4 12.5 8.2 62 3.8 WNW 13 17 7 9 - - 0.0
20/11:20am 14.8 12.8 8.6 66 3.3 WNW 9 13 5 7 - - 0.0
20/11:10am 14.4 12.4 8.5 67 3.1 WNW 9 11 5 6 - - 0.0
20/11:00am 14.3 12.2 8.3 67 3.1 WNW 9 11 5 6 - - 0.0
20/10:50am 13.9 12.1 8.1 68 3.0 W 7 11 4 6 - - 0.0
20/10:40am 13.5 12.2 9.1 75 2.3 W 6 9 3 5 - - 0.0
20/10:30am 13.2 11.2 8.7 74 2.3 NW 9 13 5 7 - - 0.0
20/10:20am 12.8 10.7 8.1 73 2.4 NW 9 11 5 6 - - 0.0
20/10:10am 12.0 10.2 8.1 77 2.0 WNW 7 11 4 6 - - 0.0
20/10:00am 11.0 10.0 8.7 86 1.2 W 4 6 2 3 - - 0.0
20/09:50am 10.2 9.1 8.5 89 0.9 SW 4 4 2 2 - - 0.0
20/09:40am 9.7 8.5 8.2 90 0.8 SW 4 6 2 3 - - 0.0
20/09:30am 9.5 7.9 8.1 91 0.7 SSW 6 6 3 3 - - 0.0
20/09:20am 9.8 8.7 8.5 92 0.7 SW 4 6 2 3 - - 0.0
20/09:10am 8.8 8.0 8.0 95 0.4 SW 2 2 1 1 - - 0.0
20/09:00am 7.4 6.7 7.1 98 0.1 CALM 0 2 0 1 - - 0.0
20/08:50am 6.3 5.0 6.1 99 0.1 WSW 2 2 1 1 - - 0.0
20/08:40am 6.0 4.7 5.8 99 0.1 WNW 2 2 1 1 - - 0.0
20/08:30am 5.8 4.1 5.7 99 0.0 SSW 4 6 2 3 - - 0.0
20/08:20am 5.9 4.6 5.8 99 0.0 S 2 6 1 3 - - 0.0
20/08:10am 5.6 4.2 5.5 99 0.0 NNE 2 4 1 2 - - 0.0
20/08:00am 5.1 3.6 5.0 99 0.0 ENE 2 4 1 2 - - 0.0
20/07:50am 4.7 3.1 4.5 99 0.1 NNE 2 2 1 1 - - 0.0
20/07:40am 4.4 2.8 4.3 99 0.0 NE 2 2 1 1 - - 0.0
20/07:30am 4.2 2.5 4.2 100 0.0 ENE 2 2 1 1 - - 0.0
20/07:20am 3.6 1.8 3.5 99 0.0 NE 2 4 1 2 - - 0.0
20/07:10am 3.7 1.9 3.6 99 0.0 W 2 4 1 2 - - 0.0
20/07:00am 4.1 2.4 4.0 99 0.0 S 2 4 1 2 - - 0.0
20/06:50am 3.9 1.8 3.8 99 0.0 NE 4 4 2 2 - - 0.0
20/06:40am 3.5 1.7 3.4 99 0.0 ENE 2 2 1 1 - - 0.0
20/06:30am 3.8 2.0 3.7 99 0.0 ENE 2 4 1 2 - - 0.0
20/06:20am 4.2 2.1 4.1 99 0.0 NE 4 6 2 3 - - 0.0
20/06:10am 4.2 2.5 4.1 99 0.0 NE 2 4 1 2 - - 0.0
20/06:00am 4.0 2.3 3.9 99 0.0 NW 2 2 1 1 - - 0.0
20/05:50am 3.9 2.1 3.7 99 0.1 WNW 2 4 1 2 - - 0.0
20/05:40am 4.3 2.6 4.2 99 0.0 NW 2 2 1 1 - - 0.0
20/05:30am 4.4 2.4 4.3 99 0.0 NNE 4 4 2 2 - - 0.0
20/05:20am 4.1 2.4 4.0 99 0.0 - 2 4 1 2 - - 0.0
20/05:10am 4.0 2.3 3.9 99 0.0 W 2 2 1 1 - - 0.0
20/05:00am 4.2 2.1 4.1 99 0.0 SSW 4 7 2 4 - - 0.0
20/04:50am 4.1 2.0 4.0 99 0.0 ENE 4 6 2 3 - - 0.0
20/04:40am 4.4 2.0 4.3 99 0.0 NE 6 6 3 3 - - 0.0
20/04:30am 4.6 3.0 4.5 99 0.0 NE 2 4 1 2 - - 0.0
20/04:20am 4.5 2.5 4.4 99 0.0 NE 4 4 2 2 - - 0.0
20/04:10am 4.5 2.9 4.4 99 0.0 ENE 2 4 1 2 - - 0.0
20/04:00am 4.5 2.9 4.4 99 0.0 NE 2 4 1 2 - - 0.0
20/03:50am 4.6 2.6 4.5 99 0.0 NE 4 4 2 2 - - 0.0
20/03:40am 4.9 3.4 4.8 99 0.0 NE 2 4 1 2 - - 0.0
20/03:30am 4.7 3.1 4.6 99 0.0 NNE 2 4 1 2 - - 0.0
20/03:20am 4.3 2.6 4.2 99 0.0 NNE 2 2 1 1 - - 0.0
20/03:10am 4.2 2.5 4.1 99 0.0 NNE 2 4 1 2 - - 0.0
20/03:00am 4.3 2.6 4.2 99 0.0 NE 2 2 1 1 - - 0.0
20/02:50am 4.5 2.9 4.4 99 0.0 SSW 2 2 1 1 - - 0.0
20/02:40am 4.1 2.4 3.9 99 0.1 NW 2 2 1 1 - - 0.0
20/02:30am 3.9 2.2 3.8 99 0.0 W 2 2 1 1 - - 0.0
20/02:20am 3.8 2.0 3.7 99 0.0 WNW 2 2 1 1 - - 0.0
20/02:10am 3.9 2.1 3.7 99 0.1 N 2 2 1 1 - - 0.0
20/02:00am 4.0 2.3 3.8 99 0.1 N 2 2 1 1 - - 0.0
20/01:50am 4.3 2.6 4.2 99 0.0 SSE 2 2 1 1 - - 0.0
20/01:40am 4.6 3.0 4.5 99 0.0 WSW 2 2 1 1 - - 0.0
20/01:30am 4.1 2.4 3.9 99 0.1 W 2 2 1 1 - - 0.0
20/01:20am 3.9 2.1 3.7 99 0.1 N 2 2 1 1 - - 0.0
20/01:10am 3.7 2.3 3.5 99 0.1 CALM 0 2 0 1 - - 0.0
20/01:00am 3.8 2.0 3.5 98 0.1 SSW 2 2 1 1 - - 0.0
20/12:50am 3.8 2.0 3.5 98 0.1 SW 2 2 1 1 - - 0.0
20/12:40am 3.9 2.1 3.6 98 0.1 N 2 4 1 2 - - 0.0
20/12:30am 4.0 2.3 3.8 99 0.1 SSW 2 4 1 2 - - 0.0
20/12:20am 4.7 3.1 4.5 99 0.1 WSW 2 4 1 2 - - 0.0
20/12:10am 3.7 1.5 3.4 98 0.1 N 4 6 2 3 - - 0.0
20/12:00am 3.7 1.9 3.3 97 0.2 N 2 4 1 2 - - 0.0
 
Date/Time
EST
Temp
°C
App
Temp
°C
Dew
Point
°C
Rel
Hum
%
Delta-T
°C
Wind Press
QNH
hPa
Press
MSL
hPa
Rain since
9am
mm
Dir  Spd
km/h
Gust
km/h
Spd
kts
Gust
kts
19/11:50pm 4.0 2.2 3.6 97 0.2 SE 2 2 1 1 - - 0.0
19/11:40pm 4.2 2.5 3.8 97 0.2 E 2 4 1 2 - - 0.0
19/11:30pm 4.2 2.4 3.7 97 0.2 NE 2 4 1 2 - - 0.0
19/11:20pm 4.1 2.3 3.5 96 0.3 NNE 2 4 1 2 - - 0.0
19/11:10pm 4.6 2.6 4.2 97 0.2 NE 4 4 2 2 - - 0.0
19/11:00pm 4.3 2.2 3.7 96 0.3 NE 4 6 2 3 - - 0.0
19/10:50pm 5.3 3.8 4.8 97 0.2 NW 2 2 1 1 - - 0.0
19/10:40pm 5.1 3.5 4.7 97 0.2 NNW 2 4 1 2 - - 0.0
19/10:30pm 4.8 3.2 4.4 97 0.2 WNW 2 4 1 2 - - 0.0
19/10:20pm 4.7 3.0 4.2 97 0.2 W 2 4 1 2 - - 0.0
19/10:10pm 5.0 3.0 4.6 97 0.2 S 4 4 2 2 - - 0.0
19/10:00pm 4.6 2.5 4.1 97 0.2 NE 4 6 2 3 - - 0.0
19/09:50pm 4.3 1.8 3.8 97 0.2 NE 6 7 3 4 - - 0.0
19/09:40pm 4.9 2.5 4.4 97 0.2 NE 6 7 3 4 - - 0.0
19/09:30pm 4.6 2.1 3.9 95 0.3 NE 6 6 3 3 - - 0.0
19/09:20pm 4.9 2.9 4.3 96 0.3 NE 4 4 2 2 - - 0.0
19/09:10pm 5.2 2.9 4.6 96 0.3 NE 6 6 3 3 - - 0.0
19/09:00pm 6.0 3.4 4.2 88 0.8 NE 7 7 4 4 - - 0.0
19/08:50pm 5.8 3.3 5.0 95 0.4 NE 7 7 4 4 - - 0.0
19/08:40pm 5.3 3.0 4.6 95 0.3 NE 6 7 3 4 - - 0.0
19/08:30pm 5.4 3.1 4.6 95 0.4 NE 6 6 3 3 - - 0.0
19/08:20pm 5.5 3.5 4.6 94 0.4 NE 4 4 2 2 - - 0.0
19/08:10pm 6.0 4.1 5.0 93 0.5 ENE 4 4 2 2 - - 0.0
19/08:00pm 6.1 3.8 5.0 93 0.5 NE 6 7 3 4 - - 0.0
19/07:50pm 6.2 4.0 5.2 93 0.5 NE 6 7 3 4 - - 0.0
19/07:40pm 6.7 4.9 5.4 91 0.6 NE 4 6 2 3 - - 0.0
19/07:30pm 6.8 4.7 5.8 93 0.5 NE 6 7 3 4 - - 0.0
19/07:20pm 6.9 4.8 5.8 93 0.5 NE 6 7 3 4 - - 0.0
19/07:10pm 7.8 5.2 6.1 89 0.8 NE 9 9 5 5 - - 0.0
19/07:00pm 8.6 6.0 6.2 85 1.1 NE 9 9 5 5 - - 0.0
19/06:50pm 8.7 6.6 6.7 87 1.0 NE 7 9 4 5 - - 0.0
19/06:40pm 9.3 7.2 6.8 84 1.2 NE 7 7 4 4 - - 0.0
19/06:30pm 9.3 7.2 6.8 84 1.2 NE 7 9 4 5 - - 0.0
19/06:20pm 9.2 6.8 6.9 85 1.1 NE 9 9 5 5 - - 0.0
19/06:10pm 9.5 7.5 7.3 86 1.1 NE 7 9 4 5 - - 0.0
19/06:00pm 9.8 8.1 7.6 86 1.1 NE 6 7 3 4 - - 0.0
19/05:50pm 10.2 8.3 7.6 84 1.3 NE 7 7 4 4 - - 0.0
19/05:40pm 10.6 8.8 7.8 83 1.4 NE 7 7 4 4 - - 0.0
19/05:30pm 10.9 9.3 8.2 83 1.4 NE 6 7 3 4 - - 0.0
19/05:20pm 11.8 10.6 8.2 78 1.8 ENE 4 6 2 3 - - 0.0
19/05:10pm 12.3 10.7 8.0 75 2.2 NE 6 7 3 4 - - 0.0
19/05:00pm 13.2 12.1 8.6 73 2.4 NNE 4 4 2 2 - - 0.0
19/04:50pm 14.7 13.7 8.9 68 3.1 NW 4 6 2 3 - - 0.0
19/04:40pm 15.8 14.5 7.8 59 4.2 NW 4 6 2 3 - - 0.0
19/04:30pm 16.4 14.8 7.9 57 4.4 NW 6 7 3 4 - - 0.0
19/04:20pm 16.4 14.7 7.5 55 4.6 NW 6 7 3 4 - - 0.0
19/04:10pm 16.1 14.1 7.3 56 4.5 NW 7 9 4 5 - - 0.0
19/04:00pm 16.0 14.0 7.2 56 4.5 NW 7 9 4 5 - - 0.0
19/03:50pm 15.8 13.5 7.4 57 4.3 NW 9 11 5 6 - - 0.0
19/03:40pm 16.0 13.6 7.2 56 4.5 NW 9 11 5 6 - - 0.0
19/03:30pm 16.3 13.9 7.2 55 4.7 NW 9 13 5 7 - - 0.0
19/03:20pm 16.5 13.8 7.3 54 4.8 NW 11 13 6 7 - - 0.0
19/03:10pm 16.8 14.5 7.5 54 4.8 NNW 9 11 5 6 - - 0.0
19/03:00pm 17.2 14.8 7.2 51 5.2 NW 9 13 5 7 - - 0.0
19/02:50pm 16.8 14.4 6.9 52 5.1 WNW 9 11 5 6 - - 0.0
19/02:40pm 16.6 14.7 7.6 55 4.7 NW 7 9 4 5 - - 0.0
19/02:30pm 16.7 14.0 7.3 54 4.9 NNW 11 17 6 9 - - 0.0
19/02:20pm 17.6 14.9 7.3 51 5.4 NW 11 15 6 8 - - 0.0
19/02:10pm 18.1 15.9 8.0 51 5.4 NNE 9 13 5 7 - - 0.0
19/02:00pm 18.1 16.1 7.0 48 5.8 NW 7 11 4 6 - - 0.0
19/01:50pm 17.7 15.0 7.5 51 5.3 N 11 15 6 8 - - 0.0
19/01:40pm 17.8 15.1 7.3 50 5.5 NNW 11 15 6 8 - - 0.0
19/01:30pm 17.9 14.7 7.0 49 5.7 NNW 13 17 7 9 - - 0.0
19/01:20pm 17.9 15.5 6.8 48 5.7 N 9 13 5 7 - - 0.0
19/01:10pm 17.6 14.7 6.5 48 5.7 N 11 17 6 9 - - 0.0
19/01:00pm 17.9 16.0 6.7 48 5.8 NW 6 7 3 4 - - 0.0
19/12:50pm 17.4 14.7 5.8 46 5.9 NNW 9 15 5 8 - - 0.0
19/12:40pm 17.5 15.0 6.6 48 5.6 NNW 9 15 5 8 - - 0.0
19/12:30pm 17.3 15.1 6.3 48 5.6 NNW 7 11 4 6 - - 0.0
19/12:20pm 17.7 16.6 8.5 55 4.9 SSW 4 7 2 4 - - 0.0
19/12:10pm 16.9 15.5 8.9 59 4.3 SSW 6 7 3 4 - - 0.0
19/12:00pm 17.1 15.8 9.2 59 4.3 SSW 6 7 3 4 - - 0.0
19/11:50am 16.5 15.4 9.8 64 3.6 SSW 6 7 3 4 - - 0.0
19/11:40am 16.0 14.8 9.5 65 3.5 WSW 6 9 3 5 - - 0.0
19/11:30am 15.9 14.7 9.4 65 3.5 SW 6 7 3 4 - - 0.0
19/11:20am 15.7 14.5 9.5 66 3.3 SSE 6 7 3 4 - - 0.0
19/11:10am 15.6 15.3 10.0 69 3.0 SSE 2 4 1 2 - - 0.0
19/11:00am 15.3 14.5 9.8 69 3.0 S 4 6 2 3 - - 0.0
19/10:50am 14.8 13.9 9.2 69 3.0 S 4 6 2 3 - - 0.0
19/10:40am 14.5 13.3 9.6 72 2.6 SSW 6 7 3 4 - - 0.0
19/10:30am 14.2 12.9 9.1 71 2.7 SW 6 6 3 3 - - 0.0
19/10:20am 13.8 12.9 9.3 74 2.4 SSW 4 7 2 4 - - 0.0
19/10:10am 13.0 11.6 8.8 75 2.2 SSW 6 7 3 4 - - 0.0
19/10:00am 11.9 10.5 8.9 82 1.6 SSE 6 7 3 4 - - 0.0
19/09:50am 11.5 9.9 8.7 83 1.4 SSE 7 9 4 5 - - 0.0
19/09:40am 11.5 9.9 8.8 83 1.4 SSE 7 9 4 5 - - 0.0
19/09:30am 11.9 10.5 8.9 82 1.6 S 6 7 3 4 - - 0.0
19/09:20am 11.4 10.4 8.8 84 1.3 SSE 4 6 2 3 - - 0.0
19/09:10am 10.5 9.4 8.6 88 1.0 SSW 4 6 2 3 - - 0.0
19/09:00am 9.9 8.8 8.5 91 0.7 SW 4 4 2 2 - - 0.0
19/08:50am 9.5 8.4 8.4 93 0.6 SW 4 4 2 2 - - 0.0
19/08:40am 9.0 7.4 7.8 92 0.6 SSW 6 6 3 3 - - 0.0
19/08:30am 8.7 7.0 7.6 93 0.5 SW 6 6 3 3 - - 0.0
19/08:20am 8.3 7.0 7.6 95 0.3 SW 4 6 2 3 - - 0.0
19/08:10am 7.5 6.1 7.1 97 0.2 WSW 4 6 2 3 - - 0.0
19/08:00am 7.3 6.2 7.0 98 0.1 E 2 6 1 3 - - 0.0
19/07:50am 7.2 6.1 7.1 99 0.0 SSE 2 4 1 2 - - 0.0
19/07:40am 7.3 6.2 7.1 99 0.1 W 2 4 1 2 - - 0.0
19/07:30am 7.2 6.1 7.1 99 0.0 S 2 2 1 1 - - 0.0
19/07:20am 7.2 6.1 7.1 99 0.0 ENE 2 4 1 2 - - 0.0
19/07:10am 6.9 5.4 6.8 99 0.0 E 4 4 2 2 - - 0.0
19/07:00am 6.6 5.4 6.5 99 0.0 NNE 2 2 1 1 - - 0.0
19/06:50am 6.5 5.3 6.4 99 0.0 NW 2 2 1 1 - - 0.0
19/06:40am 6.4 5.2 6.4 100 0.0 NW 2 4 1 2 - - 0.0
19/06:30am 6.4 5.2 6.4 100 0.0 WSW 2 2 1 1 - - 0.0
19/06:20am 6.4 4.8 6.4 100 0.0 SSW 4 6 2 3 - - 0.0
19/06:10am 6.5 4.6 6.5 100 0.0 SW 6 7 3 4 - - 0.0
19/06:00am 6.5 5.3 6.5 100 0.0 NW 2 4 1 2 - - 0.0
19/05:50am 6.5 5.3 6.5 100 0.0 NE 2 4 1 2 - - 0.0
19/05:40am 6.4 4.8 6.4 100 0.0 NE 4 4 2 2 - - 0.0
19/05:30am 6.2 4.9 6.2 100 0.0 NE 2 2 1 1 - - 0.0
19/05:20am 6.1 4.8 6.0 99 0.0 ENE 2 2 1 1 - - 0.0
19/05:10am 5.9 4.6 5.9 100 0.0 NE 2 4 1 2 - - 0.0
19/05:00am 5.9 4.6 5.9 100 0.0 N 2 4 1 2 - - 0.0
19/04:50am 5.6 3.8 5.6 100 0.0 NNE 4 4 2 2 - - 0.0
19/04:40am 5.4 3.6 5.4 100 0.0 N 4 6 2 3 - - 0.0
19/04:30am 5.4 4.0 5.4 100 0.0 S 2 4 1 2 - - 0.0
19/04:20am 5.3 3.8 5.2 99 0.0 NNW 2 2 1 1 - - 0.0
19/04:10am 5.1 3.6 5.1 100 0.0 WNW 2 4 1 2 - - 0.0
19/04:00am 5.1 3.6 5.0 99 0.0 WSW 2 4 1 2 - - 0.0
19/03:50am 5.1 3.2 5.1 100 0.0 SSW 4 6 2 3 - - 0.0
19/03:40am 4.8 3.3 4.8 100 0.0 NE 2 4 1 2 - - 0.0
19/03:30am 4.8 3.2 4.7 99 0.0 E 2 4 1 2 - - 0.0
19/03:20am 4.6 2.6 4.5 99 0.0 NE 4 6 2 3 - - 0.0
19/03:10am 4.3 2.6 4.2 99 0.0 NE 2 4 1 2 - - 0.0
19/03:00am 4.3 2.3 4.2 99 0.0 NE 4 6 2 3 - - 0.0
19/02:50am 4.2 1.8 4.1 99 0.0 NE 6 7 3 4 - - 0.0
19/02:40am 3.1 0.8 2.9 99 0.1 NE 4 7 2 4 - - 0.0
19/02:30am 3.4 1.6 3.2 99 0.1 NNW 2 4 1 2 - - 0.0
19/02:20am 4.3 1.9 4.1 99 0.1 ENE 6 7 3 4 - - 0.0
19/02:10am 3.9 1.4 3.7 99 0.1 NE 6 9 3 5 - - 0.0
19/02:00am 4.1 2.0 3.8 98 0.1 NNE 4 4 2 2 - - 0.0
19/01:50am 5.3 3.8 5.1 99 0.1 WNW 2 4 1 2 - - 0.0
19/01:40am 5.4 3.9 5.2 99 0.1 WNW 2 6 1 3 - - 0.0
19/01:30am 5.8 4.4 5.6 99 0.1 SSW 2 4 1 2 - - 0.0
19/01:20am 6.0 4.3 5.8 99 0.1 SW 4 6 2 3 - - 0.0
19/01:10am 6.5 4.3 6.3 99 0.1 SE 7 11 4 6 - - 0.0
19/01:00am 5.8 4.0 5.4 97 0.2 ESE 4 7 2 4 - - 0.0
19/12:50am 6.5 4.8 6.1 97 0.2 ESE 4 6 2 3 - - 0.0
19/12:40am 6.9 5.3 6.3 96 0.3 SW 4 4 2 2 - - 0.0
19/12:30am 8.0 6.0 7.1 94 0.4 ENE 7 11 4 6 - - 0.0
19/12:20am 7.8 5.8 7.3 97 0.2 ENE 7 13 4 7 - - 0.0
19/12:10am 9.2 7.8 8.9 98 0.2 E 6 7 3 4 - - 0.0
19/12:00am 9.0 7.4 8.8 99 0.1 ESE 7 7 4 4 - - 0.0
 
Date/Time
EST
Temp
°C
App
Temp
°C
Dew
Point
°C
Rel
Hum
%
Delta-T
°C
Wind Press
QNH
hPa
Press
MSL
hPa
Rain since
9am
mm
Dir  Spd
km/h
Gust
km/h
Spd
kts
Gust
kts
18/11:50pm 9.0 7.4 8.8 99 0.1 E 7 9 4 5 - - 0.0
18/11:40pm 7.9 6.2 7.6 98 0.1 ESE 6 7 3 4 - - 0.0
18/11:30pm 6.7 4.7 6.2 97 0.2 E 6 9 3 5 - - 0.0
18/11:20pm 7.7 5.4 7.4 98 0.1 E 9 11 5 6 - - 0.0
18/11:10pm 7.9 6.1 7.8 99 0.0 E 7 9 4 5 - - 0.0
18/11:00pm 6.3 4.6 6.1 99 0.1 ENE 4 6 2 3 - - 0.0
18/10:50pm 5.0 3.4 4.6 97 0.2 NNW 2 4 1 2 - - 0.0
18/10:40pm 5.1 3.5 4.6 97 0.2 N 2 4 1 2 - - 0.0
18/10:30pm 5.4 3.9 5.0 97 0.2 SE 2 6 1 3 - - 0.0
18/10:20pm 4.9 2.5 4.2 95 0.3 ENE 6 7 3 4 - - 0.0
18/10:10pm 5.3 3.2 4.0 91 0.6 ENE 4 7 2 4 - - 0.0
18/10:00pm 6.0 4.0 4.3 89 0.8 SSE 4 6 2 3 - - 0.0
18/09:50pm 6.0 4.0 4.3 89 0.8 S 4 6 2 3 - - 0.0
18/09:40pm 5.8 3.4 4.3 90 0.7 ESE 6 7 3 4 - - 0.0
18/09:30pm 6.1 3.7 4.4 89 0.8 ENE 6 6 3 3 - - 0.0
18/09:20pm 5.4 3.4 4.3 93 0.5 WNW 4 4 2 2 - - 0.0
18/09:10pm 5.3 2.7 3.2 86 0.9 SW 6 7 3 4 - - 0.0
18/09:00pm 4.9 2.1 3.3 89 0.7 SW 7 9 4 5 - - 0.0
18/08:50pm 4.5 2.3 3.1 91 0.6 NW 4 6 2 3 - - 0.0
18/08:40pm 5.4 2.7 2.9 84 1.1 ENE 6 9 3 5 - - 0.0
18/08:30pm 4.4 2.3 3.8 96 0.3 SE 4 6 2 3 - - 0.0
18/08:20pm 4.4 2.5 2.9 90 0.6 SE 2 4 1 2 - - 0.0
18/08:10pm 4.9 3.1 3.3 89 0.7 SE 2 4 1 2 - - 0.0
18/08:00pm 4.5 2.7 3.2 91 0.6 N 2 6 1 3 - - 0.0
18/07:50pm 4.9 2.7 3.3 89 0.7 SSW 4 6 2 3 - - 0.0
18/07:40pm 4.9 2.3 3.3 89 0.7 NNE 6 7 3 4 - - 0.0
18/07:30pm 5.3 2.5 3.4 87 0.8 ENE 7 11 4 6 - - 0.0
18/07:20pm 5.8 2.7 3.5 85 1.0 NE 9 9 5 5 - - 0.0
18/07:10pm 5.4 2.3 3.5 87 0.8 NE 9 9 5 5 - - 0.0
18/07:00pm 5.2 2.5 3.7 90 0.7 NE 7 7 4 4 - - 0.0
18/06:50pm 5.4 2.7 3.5 87 0.8 NE 7 7 4 4 - - 0.0
18/06:40pm 5.2 3.0 3.4 88 0.8 NE 4 6 2 3 - - 0.0
18/06:30pm 5.1 2.6 3.9 92 0.5 NE 6 6 3 3 - - 0.0
18/06:20pm 5.7 3.1 4.1 89 0.7 NE 7 9 4 5 - - 0.0
18/06:10pm 6.9 3.9 4.3 83 1.2 NE 9 9 5 5 - - 0.0
18/06:00pm 6.7 3.8 4.4 85 1.0 NE 9 11 5 6 - - 0.0
18/05:50pm 6.4 3.5 4.7 89 0.8 NE 9 11 5 6 - - 0.0
18/05:40pm 8.3 5.9 5.2 81 1.4 NE 7 9 4 5 - - 0.0
18/05:30pm 9.5 7.1 5.4 75 1.9 ENE 7 7 4 4 - - 0.0
18/05:20pm 10.1 7.8 5.7 74 2.1 NE 7 7 4 4 - - 0.0
18/05:10pm 10.5 8.3 6.1 74 2.1 NE 7 7 4 4 - - 0.0
18/05:00pm 11.8 9.9 6.7 71 2.5 NE 6 7 3 4 - - 0.0
18/04:50pm 14.0 12.5 7.0 62 3.5 NE 4 6 2 3 - - 0.0
18/04:40pm 15.1 13.6 6.7 57 4.3 ENE 4 4 2 2 - - 0.0
18/04:30pm 15.8 14.2 6.4 53 4.8 N 4 4 2 2 - - 0.0
18/04:20pm 17.2 15.1 5.7 46 5.8 N 6 6 3 3 - - 0.0
18/04:10pm 18.0 15.3 2.9 36 7.2 N 6 6 3 3 - - 0.0
18/04:00pm 18.8 17.1 4.1 37 7.3 NNW 2 4 1 2 - - 0.0
18/03:50pm 18.3 15.8 1.6 32 7.8 NNW 4 6 2 3 - - 0.0
18/03:40pm 18.2 15.2 2.0 34 7.6 NNW 7 9 4 5 - - 0.0
18/03:30pm 18.4 15.6 2.3 34 7.6 NNE 6 7 3 4 - - 0.0
18/03:20pm 18.5 16.2 2.6 34 7.6 NNE 4 6 2 3 - - 0.0
18/03:10pm 18.6 16.2 2.3 33 7.8 NE 4 9 2 5 - - 0.0
18/03:00pm 18.3 15.3 0.9 31 8.0 NNE 6 9 3 5 - - 0.0
18/02:50pm 18.2 14.7 1.5 32 7.8 N 9 13 5 7 - - 0.0
18/02:40pm 18.3 15.4 2.4 34 7.6 N 7 9 4 5 - - 0.0
18/02:30pm 18.4 15.4 1.8 33 7.8 N 7 9 4 5 - - 0.0
18/02:20pm 18.3 15.2 1.6 32 7.8 WNW 7 11 4 6 - - 0.0
18/02:10pm 18.1 15.2 2.5 35 7.4 NNE 7 9 4 5 - - 0.0
18/02:00pm 18.1 14.8 2.3 34 7.5 N 9 11 5 6 - - 0.0
18/01:50pm 18.2 14.7 1.5 32 7.8 NNE 9 11 5 6 - - 0.0
18/01:40pm 18.1 14.6 1.0 31 7.9 NNE 9 11 5 6 - - 0.0
18/01:30pm 18.1 14.9 0.6 30 8.0 NE 7 9 4 5 - - 0.0
18/01:20pm 18.2 15.5 2.8 35 7.4 NW 6 9 3 5 - - 0.0
18/01:10pm 17.7 15.0 3.8 39 6.8 NNW 7 11 4 6 - - 0.0
18/01:00pm 17.7 15.1 4.2 40 6.6 NW 7 15 4 8 - - 0.0
18/12:50pm 17.5 15.0 4.9 43 6.3 SW 7 13 4 7 - - 0.0
18/12:40pm 17.3 14.9 5.2 45 6.0 SW 7 11 4 6 - - 0.0
18/12:30pm 16.9 13.9 4.0 42 6.3 S 9 11 5 6 - - 0.0
18/12:20pm 16.8 14.2 4.2 43 6.1 S 7 9 4 5 - - 0.0
18/12:10pm 16.7 14.2 4.9 45 5.8 SW 7 11 4 6 - - 0.0
18/12:00pm 16.5 14.0 4.9 46 5.7 WSW 7 11 4 6 - - 0.0
18/11:50am 16.4 13.6 5.2 47 5.6 WSW 9 11 5 6 - - 0.0
18/11:40am 16.0 13.7 5.5 49 5.2 SW 7 9 4 5 - - 0.0
18/11:30am 16.2 13.6 6.0 51 5.1 SW 9 11 5 6 - - 0.0
18/11:20am 15.9 13.6 5.9 51 5.0 SW 7 9 4 5 - - 0.0
18/11:10am 15.8 13.9 6.7 54 4.6 SSW 6 9 3 5 - - 0.0
18/11:00am 15.3 13.3 6.1 54 4.6 SSW 6 7 3 4 - - 0.0
18/10:50am 14.8 12.7 5.6 54 4.6 SSW 6 7 3 4 - - 0.0
18/10:40am 14.6 12.7 6.9 60 3.9 SSW 6 6 3 3 - - 0.0
18/10:30am 14.6 13.2 7.4 62 3.7 S 4 4 2 2 - - 0.0
18/10:20am 14.1 13.2 7.8 66 3.2 SW 2 4 1 2 - - 0.0
18/10:00am 12.8 11.8 7.4 69 2.7 W 2 4 1 2 - - 0.0
18/09:50am 12.3 11.3 7.2 71 2.6 WNW 2 2 1 1 - - 0.0
18/09:40am 11.5 10.1 7.3 75 2.1 WNW 4 4 2 2 - - 0.0
18/09:30am 11.2 10.2 7.4 77 1.9 SW 2 2 1 1 - - 0.0
18/09:20am 10.3 9.6 7.1 80 1.6 CALM 0 2 0 1 - - 0.0
18/09:10am 9.1 7.9 6.6 84 1.2 WSW 2 2 1 1 - - 0.0
18/09:00am 8.2 6.9 6.0 86 1.0 WSW 2 2 1 1 - - 0.2
18/08:50am 7.1 5.8 5.8 91 0.6 SW 2 2 1 1 - - 0.2
18/08:40am 6.2 4.8 5.3 94 0.4 WNW 2 2 1 1 - - 0.2
18/08:30am 5.2 3.7 4.8 97 0.2 SW 2 2 1 1 - - 0.2
18/08:20am 4.2 2.5 3.9 98 0.1 SSW 2 2 1 1 - - 0.2
18/08:10am 3.3 1.4 3.0 98 0.1 SSW 2 2 1 1 - - 0.2
18/08:00am 2.5 0.9 2.2 98 0.1 CALM 0 2 0 1 - - 0.2
18/07:50am 1.6 -0.5 1.4 99 0.1 E 2 2 1 1 - - 0.2
18/07:40am 0.6 -1.7 0.4 99 0.1 NE 2 4 1 2 - - 0.0
18/07:30am 0.0 -3.2 -0.2 99 0.1 NE 6 6 3 3 - - 0.0
18/07:20am -0.7 -3.9 -0.8 99 0.0 NE 6 6 3 3 - - 0.0
18/07:10am -0.6 -3.5 -0.8 99 0.0 NE 4 6 2 3 - - 0.0
18/07:00am 0.0 -3.2 -0.2 99 0.1 NE 6 6 3 3 - - 0.0
18/06:50am -0.3 -3.1 -0.4 99 0.0 NE 4 6 2 3 - - 0.0

Other formats

Comma delimited format used in spreadsheet applications
http://www.bom.gov.au/fwo/IDN60801/IDN60801.99764.axf

JavaScript Object Notation format (JSON) in row-major order
http://www.bom.gov.au/fwo/IDN60801/IDN60801.99764.json

Data quality

Most of these data are generated automatically and are frequently updated. Quality checks on data are not normally performed. It is possible for incorrect values to appear. Refer to information at About Latest Weather Observations and please check the disclaimer before using these data.